createdAt,value
2017-05-10T00:00:30.427Z,6.40
2017-05-10T00:02:59.415Z,6.40
2017-05-10T00:05:28.396Z,6.40
2017-05-10T00:07:57.370Z,6.40
2017-05-10T00:10:27.429Z,6.50
2017-05-10T00:12:56.423Z,6.40
2017-05-10T00:15:25.415Z,6.50
2017-05-10T00:17:54.398Z,6.50
2017-05-10T00:20:23.350Z,6.50
2017-05-10T00:22:53.427Z,6.40
2017-05-10T00:25:22.345Z,6.40
2017-05-10T00:27:52.057Z,6.40
2017-05-10T00:30:21.042Z,6.40
2017-05-10T00:32:50.778Z,6.40
2017-05-10T00:35:20.065Z,6.40
2017-05-10T00:37:49.022Z,6.40
2017-05-10T00:40:18.018Z,6.40
2017-05-10T00:42:46.986Z,6.40
2017-05-10T00:45:15.933Z,6.40
2017-05-10T00:47:45.286Z,6.40
2017-05-10T00:50:14.275Z,6.40
2017-05-10T00:52:43.227Z,6.30
2017-05-10T00:55:12.552Z,6.30
2017-05-10T00:57:41.575Z,6.30
2017-05-10T01:00:10.542Z,6.20
2017-05-10T01:02:39.885Z,6.20
2017-05-10T01:05:09.596Z,6.10
2017-05-10T01:07:38.548Z,6.10
2017-05-10T01:10:07.516Z,6.00
2017-05-10T01:12:36.493Z,6.00
2017-05-10T01:15:05.758Z,5.90
2017-05-10T01:17:35.494Z,5.80
2017-05-10T01:20:04.436Z,5.80
2017-05-10T01:22:33.714Z,5.70
2017-05-10T01:25:02.674Z,5.60
2017-05-10T01:27:31.618Z,5.60
2017-05-10T01:30:00.621Z,5.50
2017-05-10T01:32:30.320Z,5.40
2017-05-10T01:35:00.306Z,5.40
2017-05-10T01:37:29.261Z,5.30
2017-05-10T01:39:58.213Z,5.30
2017-05-10T01:42:27.182Z,5.40
2017-05-10T01:44:56.138Z,5.40
2017-05-10T01:47:25.462Z,5.30
2017-05-10T01:49:54.429Z,5.40
2017-05-10T01:52:23.396Z,5.40
2017-05-10T01:54:52.620Z,5.40
2017-05-10T01:57:21.561Z,5.40
2017-05-10T01:59:50.559Z,5.40
2017-05-10T02:02:20.277Z,5.40
2017-05-10T02:04:49.991Z,5.40
2017-05-10T02:07:19.978Z,5.40
2017-05-10T02:09:48.944Z,5.50
2017-05-10T02:12:17.905Z,5.50
2017-05-10T02:14:47.246Z,5.50
2017-05-10T02:17:16.184Z,5.50
2017-05-10T02:19:45.149Z,5.50
2017-05-10T02:22:15.627Z,5.50
2017-05-10T02:24:44.587Z,5.50
2017-05-10T02:27:13.939Z,5.50
2017-05-10T02:29:42.914Z,5.40
2017-05-10T02:32:11.891Z,5.40
2017-05-10T02:34:41.120Z,5.30
2017-05-10T02:37:10.073Z,5.30
2017-05-10T02:39:39.043Z,5.30
2017-05-10T02:42:08.287Z,5.30
2017-05-10T02:44:37.235Z,5.30
2017-05-10T02:47:06.190Z,5.30
2017-05-10T02:49:35.163Z,5.20
2017-05-10T02:52:04.112Z,5.20
2017-05-10T02:54:33.380Z,5.20
2017-05-10T02:57:03.079Z,5.20
2017-05-10T02:59:32.018Z,5.20
2017-05-10T03:02:01.273Z,5.10
2017-05-10T03:04:30.890Z,5.10
2017-05-10T03:06:59.907Z,5.10
2017-05-10T03:09:28.890Z,5.20
2017-05-10T03:11:57.830Z,5.10
2017-05-10T03:14:27.123Z,5.10
2017-05-10T03:16:56.073Z,5.10
2017-05-10T03:19:25.040Z,5.10
2017-05-10T03:21:55.442Z,5.10
2017-05-10T03:24:24.393Z,5.10
2017-05-10T03:26:53.713Z,5.10
2017-05-10T03:29:22.687Z,5.10
2017-05-10T03:31:51.660Z,5.10
2017-05-10T03:34:21.722Z,5.00
2017-05-10T03:36:50.632Z,5.00
2017-05-10T03:39:20.353Z,5.00
2017-05-10T03:41:50.097Z,5.00
2017-05-10T03:44:19.071Z,5.00
2017-05-10T03:46:48.347Z,5.00
2017-05-10T03:49:17.386Z,5.00
2017-05-10T03:51:46.356Z,5.00
2017-05-10T03:54:15.362Z,5.00
2017-05-10T03:56:44.323Z,5.00
2017-05-10T03:59:13.592Z,5.00
2017-05-10T04:01:42.565Z,5.00
2017-05-10T04:04:11.551Z,5.00
2017-05-10T04:06:40.543Z,4.90
2017-05-10T04:09:09.592Z,4.90
2017-05-10T04:11:38.881Z,4.90
2017-05-10T04:14:08.600Z,4.90
2017-05-10T04:16:38.495Z,5.00
2017-05-10T04:19:08.110Z,5.00
2017-05-10T04:21:37.098Z,5.00
2017-05-10T04:24:07.175Z,5.00
2017-05-10T04:26:36.152Z,5.00
2017-05-10T04:29:05.097Z,5.00
2017-05-10T04:31:34.083Z,5.00
2017-05-10T04:34:03.987Z,5.00
2017-05-10T04:36:34.064Z,4.90
2017-05-10T04:39:03.021Z,4.90
2017-05-10T04:41:31.993Z,4.80
2017-05-10T04:44:01.716Z,4.80
2017-05-10T04:46:30.680Z,4.80
2017-05-10T04:49:00.771Z,4.80
2017-05-10T04:51:29.725Z,4.80
2017-05-10T04:53:58.685Z,4.80
2017-05-10T04:56:28.765Z,4.90
2017-05-10T04:58:57.740Z,4.90
2017-05-10T05:01:26.712Z,4.90
2017-05-10T05:03:55.688Z,5.00
2017-05-10T05:06:24.640Z,5.10
2017-05-10T05:08:54.029Z,5.10
2017-05-10T05:11:23.002Z,5.10
2017-05-10T05:13:52.019Z,5.20
2017-05-10T05:16:21.307Z,5.20
2017-05-10T05:18:50.226Z,5.20
2017-05-10T05:21:19.899Z,5.20
2017-05-10T05:23:48.942Z,5.30
2017-05-10T05:26:17.897Z,5.40
2017-05-10T05:28:47.188Z,5.50
2017-05-10T05:31:16.157Z,5.50
2017-05-10T05:33:45.106Z,5.60
2017-05-10T05:36:17.376Z,5.70
2017-05-10T05:38:47.152Z,5.70
2017-05-10T05:41:16.427Z,5.80
2017-05-10T05:43:45.367Z,5.90
2017-05-10T05:46:15.069Z,6.00
2017-05-10T05:48:45.318Z,6.00
2017-05-10T05:51:14.286Z,6.00
2017-05-10T05:53:44.008Z,6.10
2017-05-10T05:56:13.362Z,6.50
2017-05-10T05:58:42.322Z,7.00
2017-05-10T06:01:11.276Z,7.20
2017-05-10T06:03:41.286Z,7.40
2017-05-10T06:06:10.286Z,7.70
2017-05-10T06:08:39.977Z,7.80
2017-05-10T06:11:08.960Z,8.00
2017-05-10T06:13:37.910Z,8.10
2017-05-10T06:16:07.260Z,8.20
2017-05-10T06:18:36.971Z,8.20
2017-05-10T06:21:05.925Z,8.20
2017-05-10T06:23:34.893Z,8.30
2017-05-10T06:26:03.846Z,8.20
2017-05-10T06:28:33.482Z,8.10
2017-05-10T06:31:02.472Z,8.00
2017-05-10T06:33:31.423Z,7.90
2017-05-10T06:36:00.692Z,7.90
2017-05-10T06:38:29.641Z,7.90
2017-05-10T06:40:58.636Z,7.80
2017-05-10T06:43:27.608Z,7.80
2017-05-10T06:45:57.318Z,7.90
2017-05-10T06:48:27.406Z,7.90
2017-05-10T06:50:56.359Z,7.90
2017-05-10T06:53:25.335Z,8.00
2017-05-10T06:55:55.150Z,8.00
2017-05-10T06:58:24.115Z,8.00
2017-05-10T07:00:54.107Z,7.90
2017-05-10T07:03:23.063Z,7.80
2017-05-10T07:05:52.012Z,7.70
2017-05-10T07:08:23.660Z,7.70
2017-05-10T07:10:53.349Z,7.70
2017-05-10T07:13:23.242Z,7.70
2017-05-10T07:15:52.207Z,7.70
2017-05-10T07:18:21.189Z,7.80
2017-05-10T07:20:50.502Z,7.90
2017-05-10T07:23:19.469Z,8.00
2017-05-10T07:25:48.459Z,8.10
2017-05-10T07:28:17.438Z,8.10
2017-05-10T07:30:47.151Z,8.20
2017-05-10T07:33:17.228Z,8.30
2017-05-10T07:35:46.203Z,8.30
2017-05-10T07:38:15.155Z,8.40
2017-05-10T07:40:44.401Z,8.50
2017-05-10T07:43:13.349Z,8.50
2017-05-10T07:45:42.342Z,8.70
2017-05-10T07:48:11.291Z,8.90
2017-05-10T07:50:40.576Z,9.00
2017-05-10T07:53:10.485Z,9.20
2017-05-10T07:55:39.447Z,9.30
2017-05-10T07:58:08.417Z,9.40
2017-05-10T08:00:37.381Z,9.50
2017-05-10T08:03:06.752Z,9.60
2017-05-10T08:05:35.709Z,9.70
2017-05-10T08:08:04.689Z,9.80
2017-05-10T08:10:33.675Z,9.90
2017-05-10T08:13:03.263Z,10.00
2017-05-10T08:15:32.998Z,10.10
2017-05-10T08:18:01.975Z,10.20
2017-05-10T08:20:32.291Z,10.30
2017-05-10T08:23:01.997Z,10.40
2017-05-10T08:25:31.700Z,10.50
2017-05-10T08:28:01.416Z,10.50
2017-05-10T08:30:31.495Z,10.60
2017-05-10T08:33:00.482Z,10.60
2017-05-10T08:35:29.481Z,10.60
2017-05-10T08:37:58.466Z,10.70
2017-05-10T08:40:27.430Z,10.90
2017-05-10T08:42:56.419Z,11.00
2017-05-10T08:45:25.384Z,11.10
2017-05-10T08:47:54.398Z,11.10
2017-05-10T08:50:23.392Z,11.20
2017-05-10T08:52:52.717Z,11.30
2017-05-10T08:55:21.681Z,11.40
2017-05-10T08:57:50.660Z,11.40
2017-05-10T09:00:20.013Z,11.50
2017-05-10T09:02:48.993Z,11.60
2017-05-10T09:05:17.963Z,11.70
2017-05-10T09:07:47.277Z,11.90
2017-05-10T09:10:16.252Z,12.00
2017-05-10T09:12:45.235Z,12.10
2017-05-10T09:15:14.235Z,12.10
2017-05-10T09:17:43.203Z,12.20
2017-05-10T09:20:12.535Z,12.20
2017-05-10T09:22:41.511Z,12.20
2017-05-10T09:25:10.465Z,12.30
2017-05-10T09:27:40.180Z,12.30
2017-05-10T09:30:09.209Z,12.40
2017-05-10T09:32:38.185Z,12.50
2017-05-10T09:35:07.807Z,12.50
2017-05-10T09:37:37.112Z,12.60
2017-05-10T09:40:06.082Z,12.70
2017-05-10T09:42:35.053Z,12.90
2017-05-10T09:45:04.054Z,12.90
2017-05-10T09:47:33.013Z,13.00
2017-05-10T09:50:02.770Z,13.10
2017-05-10T09:52:31.753Z,13.40
2017-05-10T09:55:00.736Z,13.60
2017-05-10T09:57:29.698Z,13.80
2017-05-10T09:59:59.802Z,14.20
2017-05-10T10:02:28.779Z,14.50
2017-05-10T10:04:57.732Z,14.80
2017-05-10T10:07:26.777Z,15.00
2017-05-10T10:09:55.725Z,15.30
2017-05-10T10:12:24.988Z,15.50
2017-05-10T10:14:54.703Z,15.80
2017-05-10T10:17:24.629Z,16.20
2017-05-10T10:19:53.653Z,16.40
2017-05-10T10:22:22.612Z,16.60
2017-05-10T10:24:51.596Z,16.90
2017-05-10T10:27:20.599Z,17.10
2017-05-10T10:29:49.841Z,17.40
2017-05-10T10:32:18.851Z,17.60
2017-05-10T10:34:48.563Z,17.90
2017-05-10T10:37:18.633Z,18.20
2017-05-10T10:39:47.589Z,18.50
2017-05-10T10:42:16.552Z,18.80
2017-05-10T10:44:46.904Z,19.00
2017-05-10T10:47:16.770Z,19.20
2017-05-10T10:49:45.738Z,19.30
2017-05-10T10:52:16.072Z,19.40
2017-05-10T10:54:45.022Z,19.60
2017-05-10T10:57:14.354Z,19.60
2017-05-10T10:59:43.720Z,19.70
2017-05-10T11:02:12.708Z,20.00
2017-05-10T11:04:41.654Z,20.30
2017-05-10T11:07:10.931Z,20.50
2017-05-10T11:09:39.884Z,20.60
2017-05-10T11:12:08.841Z,20.70
2017-05-10T11:14:37.723Z,20.70
2017-05-10T11:17:06.777Z,20.70
2017-05-10T11:19:36.103Z,20.90
2017-05-10T11:22:05.058Z,21.00
2017-05-10T11:24:34.016Z,20.80
2017-05-10T11:27:03.007Z,20.70
2017-05-10T11:29:32.701Z,20.70
2017-05-10T11:32:01.707Z,21.20
2017-05-10T11:34:30.660Z,21.90
2017-05-10T11:36:59.642Z,22.20
2017-05-10T11:39:28.605Z,22.60
2017-05-10T11:41:57.853Z,23.00
2017-05-10T11:44:26.823Z,23.30
2017-05-10T11:46:55.804Z,23.40
2017-05-10T11:49:24.774Z,23.40
2017-05-10T11:51:53.732Z,23.50
2017-05-10T11:54:22.989Z,23.50
2017-05-10T11:56:51.948Z,23.60
2017-05-10T11:59:20.913Z,23.80
2017-05-10T12:01:50.870Z,24.00
2017-05-10T12:04:19.847Z,23.80
2017-05-10T12:06:49.194Z,23.70
2017-05-10T12:09:18.104Z,23.80
2017-05-10T12:11:47.737Z,23.80
2017-05-10T12:14:17.121Z,24.00
2017-05-10T12:16:46.824Z,23.90
2017-05-10T12:19:16.857Z,23.90
2017-05-10T12:21:45.814Z,24.00
2017-05-10T12:24:14.794Z,24.10
2017-05-10T12:26:43.993Z,24.10
2017-05-10T12:29:12.973Z,24.10
2017-05-10T12:31:41.942Z,24.10
2017-05-10T12:34:10.962Z,24.20
2017-05-10T12:36:39.936Z,24.40
2017-05-10T12:39:09.250Z,24.50
2017-05-10T12:41:38.285Z,24.60
2017-05-10T12:44:07.243Z,24.70
2017-05-10T12:46:36.526Z,24.70
2017-05-10T12:49:05.498Z,24.90
2017-05-10T12:51:34.459Z,25.20
2017-05-10T12:54:03.452Z,25.40
2017-05-10T12:56:32.406Z,25.50
2017-05-10T12:59:01.673Z,25.60
2017-05-10T13:01:30.630Z,25.60
2017-05-10T13:03:59.632Z,25.50
2017-05-10T13:06:28.603Z,25.50
2017-05-10T13:08:57.547Z,25.90
2017-05-10T13:11:27.531Z,26.10
2017-05-10T13:13:56.472Z,26.10
2017-05-10T13:16:25.427Z,26.10
2017-05-10T13:18:54.404Z,26.10
2017-05-10T13:21:23.383Z,26.20
2017-05-10T13:23:52.827Z,26.30
2017-05-10T13:26:21.784Z,26.20
2017-05-10T13:28:50.736Z,26.10
2017-05-10T13:31:20.046Z,26.40
2017-05-10T13:33:49.746Z,26.60
2017-05-10T13:36:18.687Z,26.50
2017-05-10T13:38:47.929Z,26.30
2017-05-10T13:41:17.538Z,26.10
2017-05-10T13:43:46.532Z,25.80
2017-05-10T13:46:16.617Z,25.80
2017-05-10T13:48:45.493Z,25.80
2017-05-10T13:51:14.490Z,25.80
2017-05-10T13:53:43.468Z,25.80
2017-05-10T13:56:12.425Z,26.00
2017-05-10T13:58:41.751Z,26.30
2017-05-10T14:01:10.696Z,26.30
2017-05-10T14:03:40.396Z,26.10
2017-05-10T14:06:09.406Z,26.10
2017-05-10T14:08:39.112Z,25.90
2017-05-10T14:11:08.453Z,25.90
2017-05-10T14:13:37.411Z,25.90
2017-05-10T14:16:06.374Z,25.90
2017-05-10T14:18:35.346Z,25.80
2017-05-10T14:21:04.302Z,25.70
2017-05-10T14:23:33.573Z,25.90
2017-05-10T14:26:03.257Z,26.00
2017-05-10T14:28:32.218Z,26.00
2017-05-10T14:31:01.456Z,26.00
2017-05-10T14:33:31.152Z,26.20
2017-05-10T14:36:01.092Z,26.50
2017-05-10T14:38:31.664Z,26.70
2017-05-10T14:41:00.678Z,27.00
2017-05-10T14:43:29.954Z,27.00
2017-05-10T14:45:58.931Z,26.90
2017-05-10T14:48:27.903Z,26.90
2017-05-10T14:50:57.240Z,26.90
2017-05-10T14:53:26.220Z,26.90
2017-05-10T14:55:55.842Z,26.90
2017-05-10T14:58:24.801Z,26.90
2017-05-10T15:00:53.752Z,27.00
2017-05-10T15:03:23.795Z,27.00
2017-05-10T15:05:52.771Z,26.70
2017-05-10T15:08:23.662Z,26.40
2017-05-10T15:10:52.640Z,26.40
2017-05-10T15:13:21.598Z,26.60
2017-05-10T15:15:50.558Z,26.70
2017-05-10T15:18:19.759Z,26.70
2017-05-10T15:20:49.100Z,27.00
2017-05-10T15:23:18.890Z,27.00
2017-05-10T15:25:47.843Z,26.80
2017-05-10T15:28:17.170Z,26.60
2017-05-10T15:30:46.880Z,26.30
2017-05-10T15:33:16.614Z,26.20
2017-05-10T15:35:45.873Z,26.30
2017-05-10T15:38:15.588Z,26.40
2017-05-10T15:40:45.634Z,26.60
2017-05-10T15:43:14.575Z,26.70
2017-05-10T15:45:43.524Z,26.70
2017-05-10T15:48:12.512Z,26.70
2017-05-10T15:50:41.457Z,26.80
2017-05-10T15:53:11.539Z,26.80
2017-05-10T15:55:40.485Z,26.90
2017-05-10T15:58:09.353Z,26.90
2017-05-10T16:00:38.647Z,26.70
2017-05-10T16:03:07.632Z,26.60
2017-05-10T16:05:36.607Z,26.70
2017-05-10T16:08:06.614Z,26.80
2017-05-10T16:10:35.581Z,26.90
2017-05-10T16:13:04.554Z,26.90
2017-05-10T16:15:33.534Z,26.90
2017-05-10T16:18:02.510Z,26.70
2017-05-10T16:20:32.501Z,26.40
2017-05-10T16:23:02.225Z,26.30
2017-05-10T16:25:31.208Z,26.30
2017-05-10T16:28:01.401Z,26.20
2017-05-10T16:30:30.373Z,26.00
2017-05-10T16:32:59.714Z,25.90
2017-05-10T16:35:28.674Z,25.80
2017-05-10T16:37:57.644Z,25.60
2017-05-10T16:40:26.635Z,25.50
2017-05-10T16:42:55.597Z,25.40
2017-05-10T16:45:25.586Z,25.30
2017-05-10T16:47:54.812Z,25.20
2017-05-10T16:50:24.503Z,25.00
2017-05-10T16:52:53.674Z,24.90
2017-05-10T16:55:23.408Z,24.80
2017-05-10T16:57:52.378Z,24.70
2017-05-10T17:00:21.669Z,24.40
2017-05-10T17:02:50.627Z,24.20
2017-05-10T17:05:19.576Z,24.00
2017-05-10T17:07:48.561Z,23.80
2017-05-10T17:10:17.521Z,23.70
2017-05-10T17:12:46.502Z,23.40
2017-05-10T17:15:15.450Z,23.20
2017-05-10T17:17:44.823Z,22.80
2017-05-10T17:20:13.839Z,22.30
2017-05-10T17:22:46.060Z,21.80
2017-05-10T17:25:16.375Z,21.40
2017-05-10T17:27:45.652Z,21.00
2017-05-10T17:30:14.629Z,20.60
2017-05-10T17:32:43.651Z,20.30
2017-05-10T17:35:13.801Z,20.00
2017-05-10T17:37:42.777Z,19.80
2017-05-10T17:40:11.766Z,19.60
2017-05-10T17:42:41.081Z,19.30
2017-05-10T17:45:10.061Z,19.20
2017-05-10T17:47:39.025Z,19.00
2017-05-10T17:50:08.034Z,18.80
2017-05-10T17:52:37.013Z,18.60
2017-05-10T17:55:06.329Z,18.50
2017-05-10T17:57:35.314Z,18.30
2017-05-10T18:00:04.285Z,18.20
2017-05-10T18:02:33.928Z,18.00
2017-05-10T18:05:02.883Z,17.90
2017-05-10T18:07:31.887Z,17.70
2017-05-10T18:10:00.872Z,17.60
2017-05-10T18:12:30.164Z,17.40
2017-05-10T18:14:59.475Z,17.20
2017-05-10T18:17:28.431Z,17.10
2017-05-10T18:19:57.799Z,16.90
2017-05-10T18:22:26.776Z,16.80
2017-05-10T18:24:55.755Z,16.70
2017-05-10T18:27:25.185Z,16.40
2017-05-10T18:29:54.144Z,16.20
2017-05-10T18:32:23.111Z,16.00
2017-05-10T18:34:52.078Z,15.80
2017-05-10T18:37:21.799Z,15.60
2017-05-10T18:39:51.082Z,15.40
2017-05-10T18:42:21.961Z,15.10
2017-05-10T18:44:50.967Z,14.90
2017-05-10T18:47:19.944Z,14.80
2017-05-10T18:49:48.945Z,14.60
2017-05-10T18:52:17.978Z,14.40
2017-05-10T18:54:47.706Z,14.30
2017-05-10T18:57:16.693Z,14.10
2017-05-10T18:59:45.697Z,14.00
2017-05-10T19:02:14.713Z,13.80
2017-05-10T19:04:43.689Z,13.60
2017-05-10T19:07:13.035Z,13.40
2017-05-10T19:09:42.028Z,13.30
2017-05-10T19:12:11.014Z,13.20
2017-05-10T19:14:40.018Z,13.00
2017-05-10T19:17:09.026Z,12.80
2017-05-10T19:19:39.019Z,12.60
2017-05-10T19:22:07.989Z,12.60
2017-05-10T19:24:36.957Z,12.50
2017-05-10T19:27:06.032Z,12.50
2017-05-10T19:29:35.010Z,12.50
2017-05-10T19:32:04.775Z,12.50
2017-05-10T19:34:33.785Z,12.40
2017-05-10T19:37:03.075Z,12.30
2017-05-10T19:39:32.120Z,12.10
2017-05-10T19:42:03.245Z,12.00
2017-05-10T19:44:32.280Z,11.90
2017-05-10T19:47:01.226Z,11.80
2017-05-10T19:49:30.247Z,11.80
2017-05-10T19:51:59.229Z,11.60
2017-05-10T19:54:28.564Z,11.60
2017-05-10T19:56:57.564Z,11.50
2017-05-10T19:59:33.359Z,11.40
2017-05-10T20:02:02.329Z,11.30
2017-05-10T20:04:32.058Z,11.20
2017-05-10T20:07:01.351Z,11.00
2017-05-10T20:09:31.050Z,10.90
2017-05-10T20:12:00.795Z,10.90
2017-05-10T20:14:30.173Z,10.90
2017-05-10T20:17:01.781Z,10.90
2017-05-10T20:19:31.085Z,10.80
2017-05-10T20:22:02.202Z,10.80
2017-05-10T20:24:31.507Z,10.70
2017-05-10T20:27:00.458Z,10.60
2017-05-10T20:29:29.423Z,10.60
2017-05-10T20:31:59.505Z,10.50
2017-05-10T20:34:28.494Z,10.50
2017-05-10T20:36:57.457Z,10.50
2017-05-10T20:39:32.806Z,10.40
2017-05-10T20:42:02.435Z,10.30
2017-05-10T20:44:31.746Z,10.30
2017-05-10T20:47:00.705Z,10.20
2017-05-10T20:49:29.648Z,10.10
2017-05-10T20:51:59.379Z,10.10
2017-05-10T20:54:28.349Z,10.10
2017-05-10T20:56:58.425Z,10.00
2017-05-10T20:59:28.282Z,10.00
2017-05-10T21:01:58.355Z,9.90
2017-05-10T21:04:27.298Z,9.90
2017-05-10T21:06:56.988Z,9.90
2017-05-10T21:09:26.257Z,9.80
2017-05-10T21:11:55.242Z,9.80
2017-05-10T21:14:24.241Z,9.70
2017-05-10T21:16:53.207Z,9.70
2017-05-10T21:19:22.167Z,9.70
2017-05-10T21:21:51.870Z,9.60
2017-05-10T21:24:21.561Z,9.60
2017-05-10T21:26:50.548Z,9.60
2017-05-10T21:29:19.505Z,9.60
2017-05-10T21:31:48.790Z,9.50
2017-05-10T21:34:17.803Z,9.50
2017-05-10T21:36:47.506Z,9.40
2017-05-10T21:39:16.811Z,9.40
2017-05-10T21:41:45.784Z,9.30
2017-05-10T21:44:15.501Z,9.30
2017-05-10T21:46:44.800Z,9.30
2017-05-10T21:49:13.752Z,9.30
2017-05-10T21:51:42.728Z,9.20
2017-05-10T21:54:12.430Z,9.10
2017-05-10T21:56:41.410Z,9.10
2017-05-10T21:59:10.661Z,9.10
2017-05-10T22:01:39.610Z,9.00
2017-05-10T22:04:09.613Z,8.90
2017-05-10T22:06:38.602Z,8.90
2017-05-10T22:09:07.605Z,8.90
2017-05-10T22:11:37.624Z,8.80
2017-05-10T22:14:07.313Z,8.80
2017-05-10T22:16:36.322Z,8.80
2017-05-10T22:19:06.054Z,8.80
2017-05-10T22:21:35.029Z,8.80
2017-05-10T22:24:04.761Z,8.80
2017-05-10T22:26:33.721Z,8.70
2017-05-10T22:29:10.183Z,8.70
2017-05-10T22:31:39.883Z,8.70
2017-05-10T22:34:08.836Z,8.60
2017-05-10T22:36:38.083Z,8.60
2017-05-10T22:39:08.954Z,8.50
2017-05-10T22:41:37.927Z,8.50
2017-05-10T22:44:06.814Z,8.50
2017-05-10T22:46:35.797Z,8.50
2017-05-10T22:49:05.517Z,8.40
2017-05-10T22:51:34.897Z,8.40
2017-05-10T22:54:04.605Z,8.40
2017-05-10T22:56:34.330Z,8.30
2017-05-10T22:59:04.022Z,8.30
2017-05-10T23:01:33.710Z,8.30
2017-05-10T23:04:02.673Z,8.20
2017-05-10T23:06:31.634Z,8.20
2017-05-10T23:09:02.151Z,8.20
2017-05-10T23:11:34.640Z,8.10
2017-05-10T23:14:03.892Z,8.10
2017-05-10T23:16:32.869Z,8.10
2017-05-10T23:19:01.820Z,8.10
2017-05-10T23:21:30.879Z,8.00
2017-05-10T23:24:00.598Z,8.00
2017-05-10T23:26:30.336Z,8.00
2017-05-10T23:28:59.289Z,7.90
2017-05-10T23:31:29.388Z,7.90
2017-05-10T23:33:58.356Z,7.90
2017-05-10T23:36:27.322Z,7.90
2017-05-10T23:38:56.336Z,7.90
2017-05-10T23:41:25.274Z,7.90
2017-05-10T23:43:54.986Z,7.90
2017-05-10T23:46:24.693Z,7.80
2017-05-10T23:48:54.424Z,7.80
2017-05-10T23:51:23.365Z,7.80
2017-05-10T23:53:53.139Z,7.80
2017-05-10T23:56:22.135Z,7.70
2017-05-10T23:58:51.100Z,7.70
